カシュガル の空港の天気 - METARとTAF

カシュガル空港 ( ZWSH / KHG ) - 中国 新疆ウイグル自治区カシュガル市
飛行場実況気象(Metar)
観測時間04/21 08:00 CST (04/21 00:00 UTC)
風向・風速不定 1m/s
視程10km以上
天気現象
全天の8割程度の雲 雲底高度 1220m
気温8℃
湿度81%
気圧1014hPa
METARZWSH 210000Z VRB01MPS 9999 BKN040 08/05 Q1014 NOSIG
過去の天気等 Google飛行場航空写真 Wunderground天気予報

過去48時間のMETAR

飛行場予報(TAF)
発表時間: 4/21 05:07 CST (4/20 21:07 UTC)
予報対象時間: 21日8時 CST ~ 22日8時 CST
風向・風速北西 4m/s
視程10km以上
全天の4割程度の雲 雲底高度 1,220m
21日11時 CST ~ 21日12時 CST に徐々に
風向・風速東 4m/s
視程10km以上
なし
21日22時 CST ~ 21日23時 CST に徐々に
風向・風速北西 4m/s
TAF ZWSH 202107Z 2100/2124 32004MPS 9999 SCT040 TX20/2109Z TN08/2100Z
BECMG 2103/2104 09004MPS CAVOK
BECMG 2114/2115 32004MPS